Latest Coastal Weather Observations for Aireys Inlet

IDV60701

Issued at 12:05 am EDT Saturday 1 November 2014 (issued every 10 minutes, with the page automatically refreshed every 10 minutes)

About coastal observations | Map of coastal stations | Coastal observations for VIC | Marine services | Other Formats
Station Details ID: 090180 Name: AIREYS INLET Lat: -38.46 Lon: 144.09 Height: 95.0 m
Data from the previous 72 hours. | See also: Recent months at Aireys Inlet
Date/Time
EDT
Temp

°C
Wind Pressure Rain
since 9am
mm
Weather Cloud Vis
km
Sea
Height
m
Swell
Dir
 
Speed
knots
Gust
knots
hPa Trend Height
m
Period
s
Dir
01/12:00am 17.4 WSW 8 14 - - 0.0 - - - - - - -
 
Date/Time
EDT
Temp

°C
Wind Pressure Rain
since 9am
mm
Weather Cloud Vis
km
Sea
Height
m
Swell
Dir
 
Speed
knots
Gust
knots
hPa Trend Height
m
Period
s
Dir
31/11:30pm 20.1 SW 7 13 - - 0.0 - - - - - - -
31/11:00pm 17.1 WSW 12 18 - - 0.0 - - - - - - -
31/10:30pm 18.1 SW 11 15 - - 0.0 - - - - - - -
31/10:00pm 18.2 NNW 4 9 - - 0.0 - - - - - - -
31/09:30pm 18.8 SSW 4 8 - - 0.0 - - - - - - -
31/09:00pm 20.6 SW 12 20 - - 0.0 - - - - - - -
31/08:56pm 21.1 SW 13 20 - - 0.0 - - - - - - -
31/08:30pm 26.1 N 4 8 - - 0.0 - - - - - - -
31/08:00pm 26.4 N 5 7 - - 0.0 - - - - - - -
31/07:30pm 28.7 N 7 11 - - 0.0 - - - - - - -
31/07:00pm 30.1 N 6 10 - - 0.0 - - - - - - -
31/06:30pm 30.7 NW 6 10 - - 0.0 - - - - - - -
31/06:00pm 30.9 WNW 10 17 - - 0.0 - - - - - - -
31/05:36pm 31.9 NW 15 25 - - 0.0 - - - - - - -
31/05:30pm 31.9 NW 15 24 - - 0.0 - - - - - - -
31/05:10pm 32.3 NW 15 28 - - 0.0 - - - - - - -
31/05:00pm 32.4 NW 15 25 - - 0.0 - - - - - - -
31/04:37pm 32.1 NNW 19 30 - - 0.0 - - - - - - -
31/04:30pm 31.5 NW 20 30 - - 0.0 - - - - - - -
31/04:24pm 31.9 NW 16 27 - - 0.0 - - - - - - -
31/04:00pm 32.0 NW 14 25 - - 0.0 - - - - - - -
31/03:30pm 31.9 NNW 16 29 - - 0.0 - - - - - - -
31/03:24pm 30.8 NW 17 29 - - 0.0 - - - - - - -
31/03:22pm 31.6 NW 20 28 - - 0.0 - - - - - - -
31/03:21pm 31.8 NNW 15 28 - - 0.0 - - - - - - -
31/03:00pm 30.2 NW 19 26 - - 0.0 - - - - - - -
31/02:55pm 30.2 NW 20 26 - - 0.0 - - - - - - -
31/02:35pm 29.9 NNW 15 26 - - 0.0 - - - - - - -
31/02:30pm 29.3 N 18 28 - - 0.0 - - - - - - -
31/02:00pm 29.5 NNW 20 32 - - 0.0 - - - - - - -
31/01:30pm 29.6 NNW 16 29 - - 0.0 - - - - - - -
31/01:23pm 29.5 NNW 15 25 - - 0.0 - - - - - - -
31/01:00pm 28.3 N 12 21 - - 0.0 - - - - - - -
31/12:30pm 23.9 N 10 20 - - 0.0 - - - - - - -
31/12:00pm 21.8 N 10 18 - - 0.0 - - - - - - -
31/11:30am 20.7 N 7 13 - - 0.0 - - - - - - -
31/11:00am 19.6 N 4 8 - - 0.0 - - - - - - -
31/10:30am 16.8 NE 5 9 - - 0.0 - - - - - - -
31/10:00am 15.6 NNE 8 11 - - 0.0 - - - - - - -
31/09:30am 14.5 NNE 6 9 - - 0.0 - - - - - - -
31/09:00am 14.2 N 4 11 - - 0.0 - - - - - - -
31/08:30am 13.4 N 9 13 - - 0.0 - - - - - - -
31/08:00am 12.8 N 10 16 - - 0.0 - - - - - - -
31/07:30am 12.2 N 9 15 - - 0.0 - - - - - - -
31/07:00am 11.8 N 10 15 - - 0.0 - - - - - - -
31/06:30am 11.0 N 8 12 - - 0.0 - - - - - - -
31/06:00am 10.7 N 5 7 - - 0.0 - - - - - - -
31/05:30am 11.0 N 3 5 - - 0.0 - - - - - - -
31/05:00am 10.5 NNE 5 6 - - 0.0 - - - - - - -
31/04:30am 11.2 N 5 5 - - 0.0 - - - - - - -
31/04:00am 10.9 N 4 5 - - 0.0 - - - - - - -
31/03:30am 10.8 N 6 8 - - 0.0 - - - - - - -
31/03:00am 10.8 N 5 7 - - 0.0 - - - - - - -
31/02:30am 11.1 N 6 8 - - 0.0 - - - - - - -
31/02:00am 10.7 NNW 6 7 - - 0.0 - - - - - - -
31/01:30am 11.3 WNW 5 6 - - 0.0 - - - - - - -
31/01:00am 11.5 NW 7 9 - - 0.0 - - - - - - -
31/12:30am 10.4 NW 9 11 - - 0.0 - - - - - - -
31/12:00am 11.2 NW 6 7 - - 0.0 - - - - - - -
 
Date/Time
EDT
Temp

°C
Wind Pressure Rain
since 9am
mm
Weather Cloud Vis
km
Sea
Height
m
Swell
Dir
 
Speed
knots
Gust
knots
hPa Trend Height
m
Period
s
Dir
30/11:30pm 11.4 NNW 7 9 - - 0.0 - - - - - - -
30/11:00pm 10.9 NNW 8 10 - - 0.0 - - - - - - -
30/10:30pm 11.1 NNW 5 6 - - 0.0 - - - - - - -
30/10:00pm 11.8 NNW 2 4 - - 0.0 - - - - - - -
30/09:30pm 12.4 W 1 2 - - 0.0 - - - - - - -
30/09:00pm 13.0 W 4 8 - - 0.0 - - - - - - -
30/08:30pm 13.3 SW 6 9 - - 0.0 - - - - - - -
30/08:00pm 13.7 SW 6 10 - - 0.0 - - - - - - -
30/07:30pm 15.2 SSW 7 11 - - 0.0 - - - - - - -
30/07:00pm 16.4 SSW 6 9 - - 0.0 - - - - - - -
30/06:30pm 17.2 SSW 6 11 - - 0.0 - - - - - - -
30/06:00pm 17.4 SSW 6 10 - - 0.0 - - - - - - -
30/05:30pm 17.0 S 6 9 - - 0.0 - - - - - - -
30/05:00pm 18.3 S 6 10 - - 0.0 - - - - - - -
30/04:30pm 17.1 S 5 8 - - 0.0 - - - - - - -
30/04:00pm 17.3 S 6 10 - - 0.0 - - - - - - -
30/03:30pm 17.9 S 7 12 - - 0.0 - - - - - - -
30/03:00pm 18.4 SSE 4 9 - - 0.0 - - - - - - -
30/02:30pm 19.0 W 11 15 - - 0.0 - - - - - - -
30/02:00pm 19.6 SW 4 9 - - 0.0 - - - - - - -
30/01:30pm 18.0 SSW 5 9 - - 0.0 - - - - - - -
30/01:00pm 17.6 W 5 11 - - 0.0 - - - - - - -
30/12:30pm 16.1 W 10 14 - - 0.0 - - - - - - -
30/12:00pm 15.4 W 8 16 - - 0.0 - - - - - - -
30/11:30am 15.8 WNW 7 10 - - 0.0 - - - - - - -
30/11:00am 14.6 W 6 13 - - 0.0 - - - - - - -
30/10:30am 14.1 WNW 8 13 - - 0.0 - - - - - - -
30/10:00am 14.3 W 6 11 - - 0.0 - - - - - - -
30/09:30am 13.7 WNW 6 11 - - 0.0 - - - - - - -
30/09:00am 13.4 WNW 6 10 - - 0.0 - - - - - - -
30/08:30am 12.8 WNW 5 8 - - 0.0 - - - - - - -
30/08:00am 12.1 NW 4 8 - - 0.0 - - - - - - -
30/07:30am 11.7 NW 5 8 - - 0.0 - - - - - - -
30/07:00am 11.2 NW 6 7 - - 0.0 - - - - - - -
30/06:30am 11.3 NW 5 8 - - 0.0 - - - - - - -
30/06:00am 11.3 NNW 4 7 - - 0.0 - - - - - - -
30/05:30am 11.5 NW 6 8 - - 0.0 - - - - - - -
30/05:00am 11.6 NW 7 9 - - 0.0 - - - - - - -
30/04:30am 11.8 NW 6 8 - - 0.0 - - - - - - -
30/04:00am 12.0 WNW 6 9 - - 0.0 - - - - - - -
30/03:30am 11.8 WNW 8 11 - - 0.0 - - - - - - -
30/03:00am 11.6 NNW 4 6 - - 0.0 - - - - - - -
30/02:30am 11.6 N 4 6 - - 0.0 - - - - - - -
30/02:00am 11.7 NNW 4 5 - - 0.0 - - - - - - -
30/01:30am 11.7 NNW 7 9 - - 0.0 - - - - - - -
30/01:00am 12.1 NW 6 8 - - 0.0 - - - - - - -
30/12:30am 12.2 NW 8 10 - - 0.0 - - - - - - -
30/12:00am 11.9 NNW 6 7 - - 0.0 - - - - - - -
 
Date/Time
EDT
Temp

°C
Wind Pressure Rain
since 9am
mm
Weather Cloud Vis
km
Sea
Height
m
Swell
Dir
 
Speed
knots
Gust
knots
hPa Trend Height
m
Period
s
Dir
29/11:30pm 11.8 NNW 5 7 - - 0.0 - - - - - - -
29/11:00pm 12.0 NNW 4 5 - - 0.0 - - - - - - -
29/10:30pm 12.3 NNW 2 4 - - 0.0 - - - - - - -
29/10:00pm 12.8 NNW 2 3 - - 0.0 - - - - - - -
29/09:30pm 13.1 NW 1 2 - - 0.0 - - - - - - -
29/09:00pm 13.3 W 4 5 - - 0.0 - - - - - - -
29/08:30pm 13.7 WSW 5 9 - - 0.0 - - - - - - -
29/08:00pm 14.1 SW 8 13 - - 0.0 - - - - - - -
29/07:30pm 16.1 SW 6 10 - - 0.0 - - - - - - -
29/07:00pm 17.3 SW 5 10 - - 0.0 - - - - - - -
29/06:30pm 17.6 SSW 4 7 - - 0.0 - - - - - - -
29/06:00pm 16.8 S 5 9 - - 0.0 - - - - - - -
29/05:30pm 17.1 S 5 7 - - 0.0 - - - - - - -
29/05:00pm 16.8 S 7 10 - - 0.0 - - - - - - -
29/04:30pm 17.3 S 7 11 - - 0.0 - - - - - - -
29/04:00pm 19.3 WSW 9 15 - - 0.0 - - - - - - -
29/03:30pm 19.1 NW 12 18 - - 0.0 - - - - - - -
29/03:00pm 18.2 WNW 14 23 - - 0.0 - - - - - - -
29/02:35pm 17.0 W 19 24 - - 0.0 - - - - - - -
29/02:30pm 17.3 W 7 12 - - 0.0 - - - - - - -
29/02:00pm 17.4 NNW 7 12 - - 0.0 - - - - - - -
29/01:30pm 17.0 WNW 10 19 - - 0.0 - - - - - - -
29/01:00pm 15.4 W 10 18 - - 0.0 - - - - - - -
29/12:30pm 14.9 WNW 10 15 - - 0.0 - - - - - - -
29/12:00pm 14.3 WNW 9 15 - - 0.0 - - - - - - -
29/11:30am 14.6 NW 7 16 - - 0.0 - - - - - - -
29/11:00am 14.4 NW 8 11 - - 0.0 - - - - - - -
29/10:30am 13.4 W 8 11 - - 0.0 - - - - - - -
29/10:00am 13.4 WNW 7 13 - - 0.0 - - - - - - -
29/09:30am 12.8 NW 5 9 - - 0.0 - - - - - - -
29/09:00am 11.9 NNW 5 8 - - 0.0 - - - - - - -
29/08:30am 11.5 NNW 4 7 - - 0.0 - - - - - - -
29/08:00am 10.9 NNW 5 7 - - 0.0 - - - - - - -
29/07:30am 10.4 N 5 7 - - 0.0 - - - - - - -
29/07:00am 9.9 NNW 5 7 - - 0.0 - - - - - - -
29/06:30am 9.7 NNW 5 6 - - 0.0 - - - - - - -
29/06:00am 9.5 NW 6 8 - - 0.0 - - - - - - -
29/05:30am 9.4 NW 8 10 - - 0.0 - - - - - - -
29/05:00am 9.7 NW 10 12 - - 0.0 - - - - - - -
29/04:30am 9.9 NW 8 11 - - 0.0 - - - - - - -
29/04:00am 10.2 WNW 8 10 - - 0.0 - - - - - - -
29/03:30am 9.9 NW 8 10 - - 0.0 - - - - - - -
29/03:00am 9.5 NW 8 11 - - 0.0 - - - - - - -
29/02:30am 9.7 NW 8 10 - - 0.0 - - - - - - -
29/02:00am 9.5 NW 9 11 - - 0.0 - - - - - - -
29/01:30am 9.9 WNW 6 8 - - 0.0 - - - - - - -
29/01:00am 10.5 WNW 8 13 - - 0.0 - - - - - - -
29/12:30am 10.6 WNW 7 13 - - 0.0 - - - - - - -

Other Formats:

Comma delimited format used in spreadsheet applications
http://www.bom.gov.au/fwo/IDV60701/IDV60701.94846.axf

JavaScript Object Notation format (JSON) in row-major order
http://www.bom.gov.au/fwo/IDV60701/IDV60701.94846.json